Time;durP1;ratioP1;P1;durP2;ratioP2;P2;SDS_P1;SDS_P2;PMS_P1;PMS_P2;Temp;Humidity;BMP_temperature;BMP_pressure;BME280_temperature;BME280_humidity;BME280_pressure;Samples;Min_cycle;Max_cycle;Signal;HPM_P1;HPM_P2
2022/12/26 00:00:53;;;;;;;0.70;0.45;;;;;;;;;;5036997;28;20049;-85
2022/12/26 00:03:22;;;;;;;0.30;0.30;;;;;;;;;;5047129;28;20108;-85
2022/12/26 00:05:52;;;;;;;5.05;0.95;;;;;;;;;;5041113;28;20053;-85
2022/12/26 00:08:21;;;;;;;0.28;0.28;;;;;;;;;;5028712;28;20158;-85
2022/12/26 00:10:49;;;;;;;0.20;0.20;;;;;;;;;;5034836;28;20057;-85
2022/12/26 00:13:22;;;;;;;0.10;0.10;;;;;;;;;;5033433;28;20057;-84
2022/12/26 00:16:09;;;;;;;0.70;0.60;;;;;;;;;;5028322;28;20057;-85
2022/12/26 00:18:38;;;;;;;0.20;0.20;;;;;;;;;;5036586;28;20048;-84
2022/12/26 00:21:07;;;;;;;0.70;0.43;;;;;;;;;;5035549;28;20055;-85
2022/12/26 00:23:36;;;;;;;0.95;0.75;;;;;;;;;;5037182;28;20052;-87
2022/12/26 00:26:07;;;;;;;0.20;0.20;;;;;;;;;;5035155;28;20045;-85
2022/12/26 00:28:38;;;;;;;0.63;0.35;;;;;;;;;;5024204;28;20077;-85
2022/12/26 00:31:07;;;;;;;0.32;0.30;;;;;;;;;;5024955;28;20045;-86
2022/12/26 00:33:36;;;;;;;1.02;0.82;;;;;;;;;;5031384;28;20064;-85
2022/12/26 00:36:06;;;;;;;0.22;0.22;;;;;;;;;;5035963;28;20053;-86
2022/12/26 00:38:36;;;;;;;0.30;0.30;;;;;;;;;;5022082;28;20068;-86
2022/12/26 00:41:05;;;;;;;0.77;0.38;;;;;;;;;;5034543;28;20099;-86
2022/12/26 00:43:33;;;;;;;0.68;0.52;;;;;;;;;;5028329;28;20454;-85
2022/12/26 00:46:03;;;;;;;0.95;0.30;;;;;;;;;;5033609;28;20054;-86
2022/12/26 00:48:32;;;;;;;0.57;0.52;;;;;;;;;;5028308;28;20088;-85
2022/12/26 00:51:01;;;;;;;0.28;0.28;;;;;;;;;;5037277;28;20045;-84
2022/12/26 00:53:29;;;;;;;0.30;0.30;;;;;;;;;;5032423;28;20451;-85
2022/12/26 00:55:57;;;;;;;1.23;0.57;;;;;;;;;;5028925;28;20128;-86
2022/12/26 00:58:26;;;;;;;0.45;0.45;;;;;;;;;;5031068;28;20050;-85
2022/12/26 01:00:55;;;;;;;0.43;0.43;;;;;;;;;;5032530;28;20177;-85
2022/12/26 01:03:25;;;;;;;1.08;0.52;;;;;;;;;;5034930;28;20061;-86
2022/12/26 01:05:53;;;;;;;0.20;0.20;;;;;;;;;;5031607;28;20409;-85
2022/12/26 01:08:22;;;;;;;0.30;0.30;;;;;;;;;;5033410;28;20136;-85
2022/12/26 01:10:53;;;;;;;0.63;0.43;;;;;;;;;;5032853;28;20144;-85
2022/12/26 01:13:21;;;;;;;0.47;0.43;;;;;;;;;;5031915;28;20038;-85
2022/12/26 01:15:50;;;;;;;0.28;0.28;;;;;;;;;;5035711;28;20466;-85
2022/12/26 01:18:19;;;;;;;0.40;0.40;;;;;;;;;;5031449;28;20806;-85
2022/12/26 01:20:49;;;;;;;0.20;0.20;;;;;;;;;;5035387;28;20046;-85
2022/12/26 01:23:18;;;;;;;0.80;0.40;;;;;;;;;;5033944;28;20053;-85
2022/12/26 01:25:46;;;;;;;0.43;0.40;;;;;;;;;;5025596;28;20479;-86
2022/12/26 01:28:35;;;;;;;0.28;0.28;;;;;;;;;;5035073;28;20068;-85
2022/12/26 01:31:03;;;;;;;0.15;0.15;;;;;;;;;;5029192;28;20141;-85
2022/12/26 01:33:31;;;;;;;0.30;0.30;;;;;;;;;;5027417;28;20061;-85
2022/12/26 01:36:01;;;;;;;0.65;0.65;;;;;;;;;;5033575;28;20830;-85
2022/12/26 01:38:30;;;;;;;0.60;0.60;;;;;;;;;;5030970;28;20053;-86
2022/12/26 01:41:18;;;;;;;0.68;0.47;;;;;;;;;;5027622;28;20049;-85
2022/12/26 01:43:51;;;;;;;1.98;0.47;;;;;;;;;;5032426;28;20061;-85
2022/12/26 01:46:20;;;;;;;0.63;0.38;;;;;;;;;;5033737;28;20084;-86
2022/12/26 01:48:49;;;;;;;0.32;0.32;;;;;;;;;;5025841;28;20125;-86
2022/12/26 01:51:19;;;;;;;0.35;0.35;;;;;;;;;;5032244;28;20108;-85
2022/12/26 01:53:50;;;;;;;0.68;0.30;;;;;;;;;;5031815;28;20406;-85
2022/12/26 01:56:20;;;;;;;0.98;0.43;;;;;;;;;;5035493;28;20065;-85
2022/12/26 01:58:51;;;;;;;0.10;0.10;;;;;;;;;;5025808;28;20070;-85
2022/12/26 02:01:19;;;;;;;0.43;0.43;;;;;;;;;;5004681;28;20620;-86
2022/12/26 02:06:35;;;;;;;0.20;0.20;;;;;;;;;;5007437;28;20142;-85
2022/12/26 02:09:05;;;;;;;4.15;0.90;;;;;;;;;;5016119;28;20054;-85
2022/12/26 02:11:35;;;;;;;0.10;0.10;;;;;;;;;;5017093;28;20516;-86
2022/12/26 02:14:05;;;;;;;0.25;0.25;;;;;;;;;;5011282;28;20427;-86
2022/12/26 02:16:34;;;;;;;1.40;0.32;;;;;;;;;;5015962;28;20060;-86
2022/12/26 02:19:03;;;;;;;0.30;0.30;;;;;;;;;;5016740;28;20474;-85
2022/12/26 02:21:56;;;;;;;0.20;0.20;;;;;;;;;;5015757;28;20054;-86
2022/12/26 02:24:34;;;;;;;0.57;0.50;;;;;;;;;;5019150;28;20065;-86
2022/12/26 02:27:22;;;;;;;0.10;0.10;;;;;;;;;;5009777;28;20045;-86
2022/12/26 02:30:05;;;;;;;1.35;0.47;;;;;;;;;;5012215;28;20062;-86
2022/12/26 02:32:49;;;;;;;0.22;0.22;;;;;;;;;;5015520;28;20570;-86
2022/12/26 02:35:26;;;;;;;0.55;0.30;;;;;;;;;;4996119;28;20058;-86
2022/12/26 02:38:01;;;;;;;0.10;0.10;;;;;;;;;;5018204;28;20060;-85
2022/12/26 02:40:36;;;;;;;0.52;0.52;;;;;;;;;;5021118;28;20053;-86
2022/12/26 02:43:11;;;;;;;0.20;0.20;;;;;;;;;;5016631;28;20106;-86
2022/12/26 02:48:32;;;;;;;0.40;0.40;;;;;;;;;;5015655;28;20068;-86
2022/12/26 03:13:51;;;;;;;1.80;0.50;;;;;;;;;;5038857;28;20077;-87
2022/12/26 03:19:09;;;;;;;0.20;0.10;;;;;;;;;;5029538;28;20473;-85
2022/12/26 03:21:41;;;;;;;0.60;0.40;;;;;;;;;;5027894;28;20363;-85
2022/12/26 03:24:12;;;;;;;0.20;0.20;;;;;;;;;;5031949;28;20045;-86
2022/12/26 03:26:46;;;;;;;0.55;0.50;;;;;;;;;;5028689;28;20140;-86
2022/12/26 03:32:02;;;;;;;0.57;0.55;;;;;;;;;;5034150;28;20115;-86
2022/12/26 03:34:31;;;;;;;2.53;0.40;;;;;;;;;;5032663;28;20128;-86
2022/12/26 03:37:09;;;;;;;0.38;0.38;;;;;;;;;;5028358;28;20121;-86
2022/12/26 04:19:42;;;;;;;1.30;1.15;;;;;;;;;;4992485;28;20042;-85
2022/12/26 04:45:07;;;;;;;0.20;0.20;;;;;;;;;;4968027;28;20045;-86
2022/12/26 04:50:10;;;;;;;0.40;0.40;;;;;;;;;;4972477;28;20125;-85
2022/12/26 04:50:25;;;;;;;0.30;0.30;;;;;;;;;;5031881;28;20081;-84
2022/12/26 04:52:58;;;;;;;0.43;0.38;;;;;;;;;;5031616;28;20081;-86
2022/12/26 04:55:29;;;;;;;0.73;0.73;;;;;;;;;;5026906;28;20049;-85
2022/12/26 04:57:58;;;;;;;1.00;0.47;;;;;;;;;;5027169;28;20084;-85
2022/12/26 05:00:28;;;;;;;0.70;0.20;;;;;;;;;;5012742;28;20516;-86
2022/12/26 05:11:23;;;;;;;0.50;0.50;;;;;;;;;;5018437;28;20045;-85
2022/12/26 05:13:52;;;;;;;0.13;0.13;;;;;;;;;;5009836;28;20080;-85
2022/12/26 05:30:19;;;;;;;0.52;0.52;;;;;;;;;;5025848;28;20448;-86
2022/12/26 05:35:35;;;;;;;0.20;0.20;;;;;;;;;;5031533;28;20061;-85
2022/12/26 05:38:04;;;;;;;1.70;0.98;;;;;;;;;;5025961;28;20056;-85
2022/12/26 05:40:32;;;;;;;0.15;0.15;;;;;;;;;;5029229;28;20053;-85
2022/12/26 05:43:01;;;;;;;2.38;0.43;;;;;;;;;;5031597;28;20077;-85
2022/12/26 05:45:29;;;;;;;2.92;0.75;;;;;;;;;;5029360;28;20041;-85
2022/12/26 05:47:58;;;;;;;0.65;0.45;;;;;;;;;;5031724;28;20045;-85
2022/12/26 05:50:27;;;;;;;1.80;0.50;;;;;;;;;;5030880;28;20478;-85
2022/12/26 05:52:58;;;;;;;0.40;0.40;;;;;;;;;;5027322;28;20132;-86
2022/12/26 05:55:26;;;;;;;0.43;0.40;;;;;;;;;;5030192;28;20084;-86
2022/12/26 05:57:56;;;;;;;0.65;0.30;;;;;;;;;;5030338;28;20049;-85
2022/12/26 06:00:24;;;;;;;0.73;0.45;;;;;;;;;;5023388;28;20053;-86
2022/12/26 06:02:53;;;;;;;0.30;0.30;;;;;;;;;;5031650;28;20478;-86
2022/12/26 06:05:21;;;;;;;0.30;0.30;;;;;;;;;;5025241;28;20573;-86
2022/12/26 06:07:50;;;;;;;0.30;0.30;;;;;;;;;;5029508;28;20075;-86
2022/12/26 06:10:20;;;;;;;0.43;0.43;;;;;;;;;;5028776;28;20080;-85
2022/12/26 06:12:48;;;;;;;0.10;0.10;;;;;;;;;;5027897;28;20077;-85
2022/12/26 06:15:17;;;;;;;0.20;0.20;;;;;;;;;;5025965;28;20049;-86
2022/12/26 06:17:45;;;;;;;0.32;0.30;;;;;;;;;;5028494;28;20046;-85
2022/12/26 06:20:14;;;;;;;0.40;0.40;;;;;;;;;;5020689;28;20560;-86
2022/12/26 06:22:42;;;;;;;0.22;0.22;;;;;;;;;;5020152;28;20107;-86
2022/12/26 06:25:13;;;;;;;0.20;0.20;;;;;;;;;;5029431;28;20065;-85
2022/12/26 06:27:44;;;;;;;0.20;0.20;;;;;;;;;;5025921;28;20052;-85
2022/12/26 06:30:13;;;;;;;3.70;0.57;;;;;;;;;;5031493;28;20292;-86
2022/12/26 06:32:41;;;;;;;0.20;0.20;;;;;;;;;;5031805;28;20079;-86
2022/12/26 06:35:10;;;;;;;0.30;0.20;;;;;;;;;;5030358;28;20425;-86
2022/12/26 06:37:38;;;;;;;0.22;0.22;;;;;;;;;;5025924;28;20136;-86
2022/12/26 06:40:07;;;;;;;0.22;0.22;;;;;;;;;;5034931;28;20388;-85
2022/12/26 06:42:36;;;;;;;0.70;0.40;;;;;;;;;;5041236;28;20069;-85
2022/12/26 06:45:06;;;;;;;1.85;0.25;;;;;;;;;;5034232;28;20050;-85
2022/12/26 06:47:34;;;;;;;0.90;0.30;;;;;;;;;;5033272;28;20136;-84
2022/12/26 06:50:03;;;;;;;0.20;0.20;;;;;;;;;;5029321;28;20045;-84
2022/12/26 06:52:31;;;;;;;0.38;0.30;;;;;;;;;;5022835;28;20053;-86
2022/12/26 06:55:02;;;;;;;0.68;0.50;;;;;;;;;;5039143;28;20049;-85
2022/12/26 06:57:30;;;;;;;0.35;0.35;;;;;;;;;;5033653;28;20485;-84
2022/12/26 07:00:01;;;;;;;0.63;0.30;;;;;;;;;;5032237;28;20109;-85
2022/12/26 07:02:31;;;;;;;0.20;0.20;;;;;;;;;;5020500;28;20576;-85
2022/12/26 07:05:00;;;;;;;0.28;0.28;;;;;;;;;;5032327;28;20048;-85
2022/12/26 07:07:28;;;;;;;0.10;0.10;;;;;;;;;;5026544;28;20136;-87
2022/12/26 07:09:57;;;;;;;0.57;0.40;;;;;;;;;;5033199;28;20106;-87
2022/12/26 07:12:25;;;;;;;0.73;0.40;;;;;;;;;;5032298;28;20045;-86
2022/12/26 07:14:54;;;;;;;0.10;0.10;;;;;;;;;;5033573;28;20084;-86
2022/12/26 07:17:28;;;;;;;0.30;0.30;;;;;;;;;;5030090;28;20064;-86
2022/12/26 07:19:59;;;;;;;0.52;0.52;;;;;;;;;;5032907;28;20103;-86
2022/12/26 07:22:27;;;;;;;0.20;0.20;;;;;;;;;;5025211;28;20116;-87
2022/12/26 07:24:55;;;;;;;0.20;0.20;;;;;;;;;;5022518;28;20065;-86
2022/12/26 07:27:24;;;;;;;1.02;0.60;;;;;;;;;;5034226;28;20056;-87
2022/12/26 07:29:52;;;;;;;0.40;0.32;;;;;;;;;;5030242;28;20049;-86
2022/12/26 07:32:21;;;;;;;0.43;0.30;;;;;;;;;;5033653;28;20514;-86
2022/12/26 07:34:49;;;;;;;2.65;0.50;;;;;;;;;;5034435;28;20073;-86
2022/12/26 07:37:19;;;;;;;0.30;0.30;;;;;;;;;;5034432;28;20057;-85
2022/12/26 07:39:47;;;;;;;0.17;0.17;;;;;;;;;;5034568;28;20080;-86
2022/12/26 07:42:22;;;;;;;;;;;;;;;;;;5032477;28;20042;-86
2022/12/26 07:44:50;;;;;;;0.15;0.15;;;;;;;;;;5032089;28;19925;-85
2022/12/26 07:47:18;;;;;;;0.40;0.40;;;;;;;;;;5032359;28;20049;-86
2022/12/26 07:49:47;;;;;;;0.55;0.55;;;;;;;;;;5034425;28;20045;-86
2022/12/26 07:52:15;;;;;;;0.13;0.13;;;;;;;;;;5032288;28;20262;-86
2022/12/26 07:54:45;;;;;;;0.52;0.40;;;;;;;;;;5030609;28;20107;-86
2022/12/26 07:57:13;;;;;;;0.20;0.20;;;;;;;;;;5019290;28;20418;-86
2022/12/26 08:00:03;;;;;;;1.02;0.50;;;;;;;;;;5031226;28;20045;-87
2022/12/26 08:02:31;;;;;;;0.28;0.28;;;;;;;;;;5032624;28;20452;-87
2022/12/26 08:05:00;;;;;;;0.10;0.10;;;;;;;;;;5029500;28;20137;-87
2022/12/26 08:07:28;;;;;;;1.55;0.45;;;;;;;;;;5033127;28;20136;-87
2022/12/26 08:09:58;;;;;;;0.38;0.38;;;;;;;;;;5022911;28;20385;-87
2022/12/26 08:12:28;;;;;;;0.10;0.10;;;;;;;;;;5034008;28;20564;-86
2022/12/26 08:14:56;;;;;;;0.20;0.20;;;;;;;;;;5031697;28;20064;-87
2022/12/26 08:17:24;;;;;;;0.68;0.50;;;;;;;;;;5029563;28;20145;-86
2022/12/26 08:19:53;;;;;;;0.40;0.30;;;;;;;;;;5034947;28;20049;-87
2022/12/26 08:22:21;;;;;;;1.17;0.20;;;;;;;;;;5030987;28;20055;-86
2022/12/26 08:24:49;;;;;;;0.50;0.47;;;;;;;;;;5031979;28;20053;-86
2022/12/26 08:27:19;;;;;;;9.63;0.90;;;;;;;;;;5027205;28;20340;-86
2022/12/26 08:29:48;;;;;;;0.20;0.20;;;;;;;;;;5026527;28;20049;-87
2022/12/26 08:32:16;;;;;;;0.40;0.22;;;;;;;;;;5027848;28;20065;-87
2022/12/26 08:34:44;;;;;;;3.45;0.52;;;;;;;;;;5024745;28;20065;-86
2022/12/26 08:37:13;;;;;;;1.95;0.55;;;;;;;;;;5030582;28;20525;-87
2022/12/26 08:39:41;;;;;;;0.30;0.30;;;;;;;;;;5024237;28;20045;-85
2022/12/26 08:42:09;;;;;;;0.52;0.43;;;;;;;;;;5027136;28;20042;-86
2022/12/26 08:44:39;;;;;;;1.08;0.52;;;;;;;;;;5022343;28;20050;-88
2022/12/26 08:47:07;;;;;;;0.38;0.38;;;;;;;;;;5026352;28;20065;-86
2022/12/26 08:49:36;;;;;;;0.40;0.40;;;;;;;;;;5029438;28;20053;-87
2022/12/26 08:52:05;;;;;;;0.20;0.20;;;;;;;;;;5028645;28;20056;-87
2022/12/26 08:54:34;;;;;;;0.20;0.20;;;;;;;;;;5026064;28;20053;-88
2022/12/26 08:57:03;;;;;;;0.73;0.50;;;;;;;;;;5029591;28;20057;-88
2022/12/26 08:59:31;;;;;;;0.25;0.25;;;;;;;;;;5029216;28;20059;-87
2022/12/26 09:02:02;;;;;;;0.20;0.20;;;;;;;;;;5029238;28;20061;-88
2022/12/26 09:04:30;;;;;;;0.43;0.35;;;;;;;;;;5029429;28;20045;-90
2022/12/26 09:06:59;;;;;;;0.30;0.30;;;;;;;;;;5033853;28;20099;-88
2022/12/26 09:09:28;;;;;;;0.38;0.25;;;;;;;;;;5027391;28;20489;-89
2022/12/26 09:11:56;;;;;;;0.75;0.47;;;;;;;;;;5032769;28;20060;-90
2022/12/26 09:14:25;;;;;;;0.38;0.35;;;;;;;;;;5026607;28;20357;-91
2022/12/26 09:16:53;;;;;;;0.52;0.43;;;;;;;;;;5035908;28;20049;-90
2022/12/26 09:19:23;;;;;;;0.30;0.30;;;;;;;;;;5029463;28;20191;-88
2022/12/26 09:22:49;;;;;;;0.88;0.52;;;;;;;;;;5031280;28;20061;-89
2022/12/26 09:24:41;;;;;;;4.13;0.40;;;;;;;;;;5025951;28;20469;-88
2022/12/26 09:27:09;;;;;;;0.95;0.50;;;;;;;;;;5023072;28;20049;-87
2022/12/26 09:29:38;;;;;;;0.20;0.20;;;;;;;;;;5030829;28;20060;-89
2022/12/26 09:32:07;;;;;;;0.30;0.30;;;;;;;;;;5032951;28;20401;-89
2022/12/26 09:34:39;;;;;;;0.90;0.47;;;;;;;;;;5030945;28;20117;-88
2022/12/26 09:37:08;;;;;;;1.08;0.57;;;;;;;;;;5031257;28;20109;-91
2022/12/26 09:39:36;;;;;;;2.75;0.35;;;;;;;;;;5032371;28;20169;-91
2022/12/26 09:42:13;;;;;;;0.85;0.40;;;;;;;;;;5036905;28;20056;-91
2022/12/26 09:44:46;;;;;;;0.30;0.30;;;;;;;;;;5031024;28;20088;-90
2022/12/26 09:47:21;;;;;;;0.80;0.38;;;;;;;;;;5025692;28;20116;-90
2022/12/26 09:49:54;;;;;;;0.22;0.22;;;;;;;;;;5020639;28;20374;-90
2022/12/26 09:52:25;;;;;;;0.55;0.40;;;;;;;;;;5028161;28;20467;-90
2022/12/26 09:54:54;;;;;;;0.30;0.30;;;;;;;;;;5029694;28;20457;-88
2022/12/26 09:57:27;;;;;;;0.40;0.30;;;;;;;;;;5021786;28;20522;-89
2022/12/26 09:59:57;;;;;;;1.48;0.25;;;;;;;;;;5022962;28;20542;-89
2022/12/26 10:02:26;;;;;;;0.20;0.20;;;;;;;;;;5020617;28;20167;-91
2022/12/26 10:04:57;;;;;;;0.35;0.30;;;;;;;;;;5027505;28;20050;-87
2022/12/26 10:07:31;;;;;;;0.20;0.20;;;;;;;;;;5026523;28;20136;-88
2022/12/26 10:10:08;;;;;;;0.93;0.25;;;;;;;;;;5029039;28;20056;-87
2022/12/26 10:12:45;;;;;;;0.10;0.10;;;;;;;;;;5033685;28;20057;-87
2022/12/26 10:15:19;;;;;;;2.05;0.57;;;;;;;;;;5034873;28;20069;-90
2022/12/26 10:17:53;;;;;;;0.43;0.20;;;;;;;;;;5035114;28;20117;-90
2022/12/26 10:20:29;;;;;;;1.30;0.60;;;;;;;;;;5017405;28;20088;-89
2022/12/26 10:23:16;;;;;;;1.58;0.60;;;;;;;;;;5013797;28;20049;-90
2022/12/26 10:25:48;;;;;;;8.95;0.35;;;;;;;;;;5017012;28;20494;-92
2022/12/26 10:28:26;;;;;;;0.20;0.20;;;;;;;;;;5009636;28;20204;-90
2022/12/26 10:30:56;;;;;;;0.20;0.20;;;;;;;;;;5017793;28;20200;-90
2022/12/26 10:33:30;;;;;;;0.57;0.32;;;;;;;;;;5013827;28;20054;-88
2022/12/26 10:36:01;;;;;;;0.10;0.10;;;;;;;;;;5016033;28;20130;-91
2022/12/26 10:38:34;;;;;;;4.75;0.30;;;;;;;;;;5015613;28;20065;-91
2022/12/26 10:41:07;;;;;;;0.38;0.30;;;;;;;;;;5040458;28;20104;-92
2022/12/26 10:43:37;;;;;;;0.85;0.57;;;;;;;;;;5038117;28;20474;-89
2022/12/26 10:46:16;;;;;;;1.23;0.20;;;;;;;;;;5039744;28;20049;-90
2022/12/26 10:48:45;;;;;;;0.63;0.20;;;;;;;;;;5032853;28;20063;-90
2022/12/26 10:51:15;;;;;;;1.17;0.60;;;;;;;;;;5038334;28;20148;-88
2022/12/26 10:53:49;;;;;;;0.17;0.13;;;;;;;;;;5035167;28;20132;-92
2022/12/26 10:56:17;;;;;;;0.20;0.20;;;;;;;;;;5029149;28;20581;-89
2022/12/26 10:58:46;;;;;;;0.30;0.30;;;;;;;;;;5033180;28;20064;-90
2022/12/26 11:01:33;;;;;;;0.28;0.28;;;;;;;;;;5033509;28;20053;-88
2022/12/26 11:04:03;;;;;;;0.90;0.30;;;;;;;;;;5033359;28;20608;-89
2022/12/26 11:06:34;;;;;;;0.65;0.32;;;;;;;;;;5034667;28;20525;-91
2022/12/26 11:09:06;;;;;;;0.30;0.30;;;;;;;;;;5032228;28;20053;-89
2022/12/26 11:11:50;;;;;;;0.20;0.20;;;;;;;;;;5036196;28;20128;-92
2022/12/26 11:14:27;;;;;;;0.73;0.50;;;;;;;;;;5029842;28;20045;-93
2022/12/26 11:17:03;;;;;;;0.32;0.30;;;;;;;;;;5023942;28;20049;-92
2022/12/26 11:19:33;;;;;;;0.70;0.30;;;;;;;;;;5036213;28;20049;-93
2022/12/26 11:22:25;;;;;;;0.20;0.20;;;;;;;;;;5037791;28;20045;-92
2022/12/26 11:25:03;;;;;;;0.25;0.20;;;;;;;;;;5034583;28;20052;-90
2022/12/26 11:27:32;;;;;;;0.55;0.17;;;;;;;;;;5032365;28;20136;-90
2022/12/26 11:30:15;;;;;;;0.22;0.20;;;;;;;;;;5027488;28;20041;-93
2022/12/26 11:32:45;;;;;;;0.20;0.20;;;;;;;;;;5031889;28;20041;-89
2022/12/26 11:35:17;;;;;;;0.85;0.30;;;;;;;;;;5035610;28;20075;-90
2022/12/26 11:37:48;;;;;;;0.20;0.20;;;;;;;;;;5039204;28;20092;-93
2022/12/26 11:40:17;;;;;;;0.68;0.30;;;;;;;;;;5030495;28;20480;-92
2022/12/26 11:42:49;;;;;;;0.30;0.15;;;;;;;;;;5036553;28;20073;-95
2022/12/26 11:45:22;;;;;;;0.20;0.20;;;;;;;;;;5040872;28;20479;-92
2022/12/26 11:47:51;;;;;;;1.00;0.38;;;;;;;;;;5039070;28;20060;-92
2022/12/26 11:50:20;;;;;;;2.05;0.50;;;;;;;;;;5031180;28;20425;-91
2022/12/26 11:52:54;;;;;;;0.30;0.20;;;;;;;;;;5036543;28;20076;-91
2022/12/26 11:55:32;;;;;;;0.20;0.20;;;;;;;;;;5037422;28;20080;-93
2022/12/26 11:58:05;;;;;;;1.38;0.50;;;;;;;;;;5034607;28;20045;-90
2022/12/26 12:00:34;;;;;;;0.85;0.30;;;;;;;;;;5033972;28;20119;-90
2022/12/26 12:03:03;;;;;;;1.33;0.60;;;;;;;;;;5035795;28;20079;-90
2022/12/26 12:05:38;;;;;;;1.85;0.50;;;;;;;;;;5027785;28;20068;-87
2022/12/26 12:08:16;;;;;;;0.43;0.43;;;;;;;;;;5031400;28;20053;-90
2022/12/26 12:10:55;;;;;;;1.10;0.30;;;;;;;;;;5030277;28;20371;-90
2022/12/26 12:13:35;;;;;;;0.20;0.20;;;;;;;;;;5029193;28;20049;-89
2022/12/26 12:16:10;;;;;;;0.50;0.32;;;;;;;;;;5037787;28;20056;-91
2022/12/26 12:18:43;;;;;;;0.43;0.40;;;;;;;;;;5038611;28;20050;-90
2022/12/26 12:21:16;;;;;;;2.20;0.50;;;;;;;;;;5033603;28;20490;-88
2022/12/26 12:23:56;;;;;;;3.50;0.50;;;;;;;;;;5032203;28;20487;-92
2022/12/26 12:26:30;;;;;;;0.40;0.30;;;;;;;;;;5035173;28;20068;-87
2022/12/26 12:29:06;;;;;;;0.70;0.38;;;;;;;;;;5035309;28;20053;-89
2022/12/26 12:31:40;;;;;;;0.90;0.55;;;;;;;;;;5032713;28;20124;-88
2022/12/26 12:34:17;;;;;;;0.65;0.43;;;;;;;;;;5026555;28;20056;-88
2022/12/26 12:36:59;;;;;;;8.27;0.43;;;;;;;;;;5036714;28;20522;-86
2022/12/26 12:39:36;;;;;;;0.50;0.32;;;;;;;;;;5031026;28;20061;-86
2022/12/26 12:42:23;;;;;;;0.30;0.30;;;;;;;;;;5030243;28;20061;-86
2022/12/26 12:44:59;;;;;;;4.32;0.57;;;;;;;;;;5029574;28;20513;-87
2022/12/26 12:47:35;;;;;;;1.35;0.88;;;;;;;;;;5027424;28;20137;-87
2022/12/26 12:50:09;;;;;;;0.65;0.40;;;;;;;;;;5028122;28;20041;-88
2022/12/26 12:52:45;;;;;;;0.40;0.30;;;;;;;;;;5027478;28;20443;-87
2022/12/26 12:55:33;;;;;;;0.30;0.30;;;;;;;;;;5029924;28;20053;-89
2022/12/26 12:58:08;;;;;;;1.08;0.50;;;;;;;;;;5031519;28;20065;-89
2022/12/26 13:00:41;;;;;;;2.28;0.57;;;;;;;;;;5037293;28;20056;-90
2022/12/26 13:03:14;;;;;;;0.17;0.17;;;;;;;;;;5032041;28;20056;-93
2022/12/26 13:05:45;;;;;;;0.98;0.60;;;;;;;;;;5037095;28;20061;-88
2022/12/26 13:08:16;;;;;;;0.60;0.40;;;;;;;;;;5035552;28;20053;-90
2022/12/26 13:10:48;;;;;;;2.63;0.57;;;;;;;;;;5031534;28;20065;-88
2022/12/26 13:13:22;;;;;;;2.95;0.57;;;;;;;;;;5036985;28;20054;-88
2022/12/26 13:15:53;;;;;;;0.70;0.55;;;;;;;;;;5011993;28;20037;-88
2022/12/26 13:18:24;;;;;;;1.02;0.40;;;;;;;;;;5036388;28;20502;-88
2022/12/26 13:20:56;;;;;;;0.47;0.43;;;;;;;;;;5033373;28;20067;-87
2022/12/26 13:26:19;;;;;;;2.70;1.40;;;;;;;;;;5027249;28;20057;-87
2022/12/26 13:28:55;;;;;;;0.47;0.32;;;;;;;;;;5019679;28;20046;-89
2022/12/26 13:31:24;;;;;;;0.45;0.30;;;;;;;;;;5032530;28;20061;-89
2022/12/26 13:33:53;;;;;;;1.83;0.57;;;;;;;;;;5033018;28;20047;-87
2022/12/26 13:36:36;;;;;;;1.38;1.10;;;;;;;;;;5035053;28;20057;-86
2022/12/26 13:39:17;;;;;;;1.50;0.88;;;;;;;;;;5034445;28;20053;-89
2022/12/26 13:44:38;;;;;;;2.58;1.38;;;;;;;;;;5036965;28;20073;-91
2022/12/26 13:47:06;;;;;;;0.68;0.47;;;;;;;;;;5033792;28;20115;-90
2022/12/26 13:49:36;;;;;;;1.30;0.43;;;;;;;;;;5037527;28;20469;-88
2022/12/26 13:52:22;;;;;;;1.05;0.60;;;;;;;;;;5036091;28;20053;-88
2022/12/26 13:55:09;;;;;;;0.95;0.55;;;;;;;;;;5035572;28;20309;-87
2022/12/26 13:57:38;;;;;;;0.80;0.63;;;;;;;;;;5031579;28;20060;-88
2022/12/26 14:00:19;;;;;;;0.98;0.55;;;;;;;;;;5040781;28;20072;-88
2022/12/26 14:03:05;;;;;;;1.25;0.43;;;;;;;;;;5037078;28;20045;-86
2022/12/26 14:05:57;;;;;;;3.95;0.77;;;;;;;;;;5037759;28;20045;-86
2022/12/26 14:08:32;;;;;;;2.55;0.45;;;;;;;;;;5028849;28;20053;-89
2022/12/26 14:11:07;;;;;;;0.63;0.30;;;;;;;;;;5040273;28;20096;-88
2022/12/26 14:13:53;;;;;;;0.88;0.45;;;;;;;;;;5033199;28;20041;-90
2022/12/26 14:16:26;;;;;;;0.50;0.35;;;;;;;;;;5034492;28;20471;-86
2022/12/26 14:19:00;;;;;;;0.93;0.70;;;;;;;;;;5024613;28;20105;-87
2022/12/26 14:21:37;;;;;;;0.50;0.50;;;;;;;;;;5029673;28;20057;-86
2022/12/26 14:24:11;;;;;;;0.57;0.45;;;;;;;;;;5028813;28;20087;-90
2022/12/26 14:26:44;;;;;;;0.28;0.22;;;;;;;;;;5033467;28;20054;-90
2022/12/26 14:29:19;;;;;;;0.65;0.40;;;;;;;;;;5035399;28;20053;-87
2022/12/26 14:31:55;;;;;;;0.75;0.65;;;;;;;;;;5037090;28;20041;-89
2022/12/26 14:34:28;;;;;;;0.65;0.50;;;;;;;;;;5032639;28;20049;-87
2022/12/26 14:37:00;;;;;;;0.75;0.45;;;;;;;;;;5034238;28;20045;-89
2022/12/26 14:39:33;;;;;;;0.60;0.57;;;;;;;;;;5037992;28;20199;-87
2022/12/26 14:45:33;;;;;;;1.23;0.73;;;;;;;;;;5020224;28;20072;-85
2022/12/26 14:48:04;;;;;;;0.50;0.50;;;;;;;;;;5033659;28;20658;-88
2022/12/26 14:50:37;;;;;;;2.42;0.75;;;;;;;;;;5038715;28;20052;-88
2022/12/26 14:53:22;;;;;;;0.50;0.30;;;;;;;;;;5037255;28;20041;-90
2022/12/26 14:55:51;;;;;;;;;;;;;;;;;;5040455;28;20054;-87
2022/12/26 14:58:24;;;;;;;0.52;0.52;;;;;;;;;;5034310;28;19928;-88
2022/12/26 15:00:54;;;;;;;3.83;1.35;;;;;;;;;;5036824;28;20049;-87
2022/12/26 15:03:43;;;;;;;0.43;0.38;;;;;;;;;;5038890;28;20132;-89
2022/12/26 15:06:32;;;;;;;0.55;0.43;;;;;;;;;;5031544;28;20277;-88
2022/12/26 15:09:11;;;;;;;0.50;0.50;;;;;;;;;;5028012;28;20099;-88
2022/12/26 15:11:49;;;;;;;2.17;0.55;;;;;;;;;;5031149;28;20053;-88
2022/12/26 15:14:36;;;;;;;1.27;0.52;;;;;;;;;;5033615;28;20037;-88
2022/12/26 15:17:10;;;;;;;0.13;0.13;;;;;;;;;;5020610;28;20137;-90
2022/12/26 15:19:57;;;;;;;0.23;0.23;;;;;;;;;;5034543;28;20059;-88
2022/12/26 15:22:42;;;;;;;0.30;0.30;;;;;;;;;;5036058;28;20455;-88
2022/12/26 15:25:27;;;;;;;0.30;0.30;;;;;;;;;;5030764;28;20057;-87
2022/12/26 15:28:10;;;;;;;0.88;0.40;;;;;;;;;;5036277;28;20064;-88
2022/12/26 15:30:55;;;;;;;0.10;0.10;;;;;;;;;;4997814;28;20050;-86
2022/12/26 15:33:27;;;;;;;0.35;0.35;;;;;;;;;;5032584;28;20129;-87
2022/12/26 15:36:03;;;;;;;1.45;0.45;;;;;;;;;;5028949;28;20054;-86
2022/12/26 15:38:35;;;;;;;1.23;0.52;;;;;;;;;;5036542;28;20108;-86
2022/12/26 15:41:11;;;;;;;0.30;0.30;;;;;;;;;;5039180;28;20068;-89
2022/12/26 15:43:49;;;;;;;0.47;0.47;;;;;;;;;;5019121;28;20105;-89
2022/12/26 15:46:19;;;;;;;0.45;0.45;;;;;;;;;;5033722;28;20061;-85
2022/12/26 15:49:08;;;;;;;0.30;0.30;;;;;;;;;;5034517;28;20056;-87
2022/12/26 15:51:43;;;;;;;0.30;0.30;;;;;;;;;;5030492;28;20075;-86
2022/12/26 15:54:18;;;;;;;0.75;0.38;;;;;;;;;;5035302;28;20145;-86
2022/12/26 15:56:51;;;;;;;0.70;0.70;;;;;;;;;;5034825;28;20057;-88
2022/12/26 15:59:38;;;;;;;1.10;0.60;;;;;;;;;;5030269;28;20513;-86
2022/12/26 16:02:12;;;;;;;0.52;0.40;;;;;;;;;;5023402;28;20071;-86
2022/12/26 16:04:43;;;;;;;0.73;0.55;;;;;;;;;;5028817;28;20042;-86
2022/12/26 16:07:20;;;;;;;0.35;0.25;;;;;;;;;;5027373;28;20072;-86
2022/12/26 16:09:51;;;;;;;6.50;0.57;;;;;;;;;;5034808;28;20051;-86
2022/12/26 16:12:23;;;;;;;0.22;0.22;;;;;;;;;;5032400;28;20127;-88
2022/12/26 16:15:00;;;;;;;0.25;0.20;;;;;;;;;;5027650;28;20042;-88
2022/12/26 16:17:28;;;;;;;0.60;0.60;;;;;;;;;;5028493;28;20054;-87
2022/12/26 16:19:57;;;;;;;2.00;0.40;;;;;;;;;;5033433;28;20129;-87
2022/12/26 16:22:43;;;;;;;0.15;0.15;;;;;;;;;;5033700;28;20058;-86
2022/12/26 16:25:11;;;;;;;;;;;;;;;;;;5037598;28;20159;-88
2022/12/26 16:27:41;;;;;;;0.10;0.10;;;;;;;;;;5031080;28;19921;-86
2022/12/26 16:30:14;;;;;;;0.17;0.17;;;;;;;;;;5033364;28;20057;-85
2022/12/26 16:32:44;;;;;;;0.10;0.10;;;;;;;;;;5027127;28;20110;-85
2022/12/26 16:35:18;;;;;;;0.10;0.10;;;;;;;;;;5028143;28;20061;-84
2022/12/26 16:37:46;;;;;;;0.10;0.10;;;;;;;;;;5038474;28;20080;-91
2022/12/26 16:40:17;;;;;;;0.15;0.15;;;;;;;;;;5033204;28;20048;-87
2022/12/26 16:42:55;;;;;;;0.32;0.20;;;;;;;;;;5033765;28;20041;-88
2022/12/26 16:45:25;;;;;;;0.57;0.40;;;;;;;;;;5036608;28;20057;-85
2022/12/26 16:47:54;;;;;;;0.10;0.10;;;;;;;;;;5059045;28;20051;-86
2022/12/26 16:50:23;;;;;;;0.20;0.20;;;;;;;;;;5051435;28;20144;-85
2022/12/26 16:53:01;;;;;;;0.47;0.10;;;;;;;;;;5061565;28;20040;-86
2022/12/26 16:55:37;;;;;;;0.20;0.20;;;;;;;;;;5061681;28;20136;-90
2022/12/26 16:58:12;;;;;;;0.20;0.20;;;;;;;;;;5054099;28;20466;-92
2022/12/26 17:00:47;;;;;;;0.20;0.20;;;;;;;;;;5060153;28;20114;-91
2022/12/26 17:03:23;;;;;;;0.40;0.25;;;;;;;;;;5048666;28;20315;-92
2022/12/26 17:05:51;;;;;;;0.45;0.20;;;;;;;;;;5051537;28;20048;-90
2022/12/26 17:08:20;;;;;;;0.10;0.10;;;;;;;;;;5056460;28;20060;-94
2022/12/26 17:10:50;;;;;;;0.68;0.30;;;;;;;;;;5057250;28;20438;-90
2022/12/26 17:13:21;;;;;;;0.20;0.20;;;;;;;;;;5055658;28;20057;-89
2022/12/26 17:15:52;;;;;;;0.20;0.20;;;;;;;;;;5056365;28;20052;-87
2022/12/26 17:18:31;;;;;;;0.65;0.30;;;;;;;;;;5057960;28;20083;-88
2022/12/26 17:21:15;;;;;;;0.10;0.10;;;;;;;;;;5054271;28;20315;-88
2022/12/26 17:23:45;;;;;;;0.10;0.10;;;;;;;;;;5052849;28;20053;-87
2022/12/26 17:26:21;;;;;;;0.20;0.20;;;;;;;;;;5056076;28;20062;-86